sensor_id;sensor_type;location;lat;lon;timestamp;temperature;humidity
27492;DHT22;14927;51.210;6.838;2024-02-21T00:00:54;14.00;59.40
27492;DHT22;14927;51.210;6.838;2024-02-21T00:03:38;14.00;59.40
27492;DHT22;14927;51.210;6.838;2024-02-21T00:06:23;14.00;59.40
27492;DHT22;14927;51.210;6.838;2024-02-21T00:09:08;14.00;59.40
27492;DHT22;14927;51.210;6.838;2024-02-21T00:11:53;14.00;59.50
27492;DHT22;14927;51.210;6.838;2024-02-21T00:14:38;14.20;59.60
27492;DHT22;14927;51.210;6.838;2024-02-21T00:17:23;14.00;59.60
27492;DHT22;14927;51.210;6.838;2024-02-21T00:20:07;14.00;60.30
27492;DHT22;14927;51.210;6.838;2024-02-21T00:22:53;14.00;59.60
27492;DHT22;14927;51.210;6.838;2024-02-21T00:25:39;14.00;59.60
27492;DHT22;14927;51.210;6.838;2024-02-21T00:28:24;14.00;59.60
27492;DHT22;14927;51.210;6.838;2024-02-21T00:31:09;14.00;59.60
27492;DHT22;14927;51.210;6.838;2024-02-21T00:33:58;14.00;59.70
27492;DHT22;14927;51.210;6.838;2024-02-21T00:36:43;14.00;59.80
27492;DHT22;14927;51.210;6.838;2024-02-21T00:39:27;14.00;59.80
27492;DHT22;14927;51.210;6.838;2024-02-21T00:42:12;14.00;59.90
27492;DHT22;14927;51.210;6.838;2024-02-21T00:44:58;14.00;60.00
27492;DHT22;14927;51.210;6.838;2024-02-21T00:47:42;14.00;60.00
27492;DHT22;14927;51.210;6.838;2024-02-21T00:50:27;14.00;60.00
27492;DHT22;14927;51.210;6.838;2024-02-21T00:53:11;14.10;60.10
27492;DHT22;14927;51.210;6.838;2024-02-21T00:55:56;14.00;60.10
27492;DHT22;14927;51.210;6.838;2024-02-21T00:58:41;14.00;60.20
27492;DHT22;14927;51.210;6.838;2024-02-21T01:01:26;13.90;60.20
27492;DHT22;14927;51.210;6.838;2024-02-21T01:04:10;14.20;60.40
27492;DHT22;14927;51.210;6.838;2024-02-21T01:06:55;14.00;60.30
27492;DHT22;14927;51.210;6.838;2024-02-21T01:09:39;13.90;60.30
27492;DHT22;14927;51.210;6.838;2024-02-21T01:12:24;14.00;60.50
27492;DHT22;14927;51.210;6.838;2024-02-21T01:15:09;14.00;60.50
27492;DHT22;14927;51.210;6.838;2024-02-21T01:17:54;14.00;60.40
27492;DHT22;14927;51.210;6.838;2024-02-21T01:20:39;13.90;60.40
27492;DHT22;14927;51.210;6.838;2024-02-21T01:23:24;14.00;60.50
27492;DHT22;14927;51.210;6.838;2024-02-21T01:26:08;14.00;60.50
27492;DHT22;14927;51.210;6.838;2024-02-21T01:28:56;14.00;60.50
27492;DHT22;14927;51.210;6.838;2024-02-21T01:31:41;14.00;60.50
27492;DHT22;14927;51.210;6.838;2024-02-21T01:34:26;14.10;60.60
27492;DHT22;14927;51.210;6.838;2024-02-21T01:37:10;14.00;60.50
27492;DHT22;14927;51.210;6.838;2024-02-21T01:39:55;14.00;60.60
27492;DHT22;14927;51.210;6.838;2024-02-21T01:42:40;14.00;60.60
27492;DHT22;14927;51.210;6.838;2024-02-21T01:45:24;14.00;60.60
27492;DHT22;14927;51.210;6.838;2024-02-21T01:48:09;14.00;60.60
27492;DHT22;14927;51.210;6.838;2024-02-21T01:50:54;14.00;60.60
27492;DHT22;14927;51.210;6.838;2024-02-21T01:53:43;14.00;60.60
27492;DHT22;14927;51.210;6.838;2024-02-21T01:56:31;14.00;60.70
27492;DHT22;14927;51.210;6.838;2024-02-21T01:59:16;14.00;60.70
27492;DHT22;14927;51.210;6.838;2024-02-21T02:02:01;14.00;60.70
27492;DHT22;14927;51.210;6.838;2024-02-21T02:04:46;13.90;60.70
27492;DHT22;14927;51.210;6.838;2024-02-21T02:07:30;14.00;60.80
27492;DHT22;14927;51.210;6.838;2024-02-21T02:10:15;14.00;60.90
27492;DHT22;14927;51.210;6.838;2024-02-21T02:13:09;13.80;60.80
27492;DHT22;14927;51.210;6.838;2024-02-21T02:15:54;14.00;61.00
27492;DHT22;14927;51.210;6.838;2024-02-21T02:18:39;14.00;61.00
27492;DHT22;14927;51.210;6.838;2024-02-21T02:25:24;13.90;60.90
27492;DHT22;14927;51.210;6.838;2024-02-21T02:28:09;14.00;60.90
27492;DHT22;14927;51.210;6.838;2024-02-21T02:30:53;13.90;60.80
27492;DHT22;14927;51.210;6.838;2024-02-21T02:33:38;14.10;60.90
27492;DHT22;14927;51.210;6.838;2024-02-21T02:36:23;13.90;60.70
27492;DHT22;14927;51.210;6.838;2024-02-21T02:39:08;13.90;60.80
27492;DHT22;14927;51.210;6.838;2024-02-21T02:41:52;13.90;60.80
27492;DHT22;14927;51.210;6.838;2024-02-21T02:44:37;13.90;60.90
27492;DHT22;14927;51.210;6.838;2024-02-21T02:47:22;14.00;60.90
27492;DHT22;14927;51.210;6.838;2024-02-21T02:50:08;13.90;60.90
27492;DHT22;14927;51.210;6.838;2024-02-21T02:52:54;13.90;60.80
27492;DHT22;14927;51.210;6.838;2024-02-21T02:55:39;14.00;60.90
27492;DHT22;14927;51.210;6.838;2024-02-21T02:58:24;14.00;60.90
27492;DHT22;14927;51.210;6.838;2024-02-21T03:01:09;13.90;60.80
27492;DHT22;14927;51.210;6.838;2024-02-21T03:03:54;13.90;60.70
27492;DHT22;14927;51.210;6.838;2024-02-21T03:06:38;13.90;60.80
27492;DHT22;14927;51.210;6.838;2024-02-21T03:09:23;14.00;60.80
27492;DHT22;14927;51.210;6.838;2024-02-21T03:12:08;13.90;60.70
27492;DHT22;14927;51.210;6.838;2024-02-21T03:14:53;13.90;60.70
27492;DHT22;14927;51.210;6.838;2024-02-21T03:17:37;13.90;60.80
27492;DHT22;14927;51.210;6.838;2024-02-21T03:20:22;13.80;60.80
27492;DHT22;14927;51.210;6.838;2024-02-21T03:23:08;13.80;60.90
27492;DHT22;14927;51.210;6.838;2024-02-21T03:25:53;13.80;60.90
27492;DHT22;14927;51.210;6.838;2024-02-21T03:28:37;13.90;60.90
27492;DHT22;14927;51.210;6.838;2024-02-21T03:31:24;13.90;61.00
27492;DHT22;14927;51.210;6.838;2024-02-21T03:34:10;13.80;60.90
27492;DHT22;14927;51.210;6.838;2024-02-21T03:36:55;13.80;61.00
27492;DHT22;14927;51.210;6.838;2024-02-21T03:39:40;14.10;61.10
27492;DHT22;14927;51.210;6.838;2024-02-21T03:42:25;14.10;61.10
27492;DHT22;14927;51.210;6.838;2024-02-21T03:45:09;13.80;60.90
27492;DHT22;14927;51.210;6.838;2024-02-21T03:47:54;13.90;60.90
27492;DHT22;14927;51.210;6.838;2024-02-21T03:50:39;14.00;60.90
27492;DHT22;14927;51.210;6.838;2024-02-21T03:53:24;13.90;60.90
27492;DHT22;14927;51.210;6.838;2024-02-21T03:56:09;13.80;60.90
27492;DHT22;14927;51.210;6.838;2024-02-21T03:58:54;13.80;60.90
27492;DHT22;14927;51.210;6.838;2024-02-21T04:01:38;13.80;60.90
27492;DHT22;14927;51.210;6.838;2024-02-21T04:04:23;13.90;60.90
27492;DHT22;14927;51.210;6.838;2024-02-21T04:07:07;13.90;61.00
27492;DHT22;14927;51.210;6.838;2024-02-21T04:09:53;13.80;60.90
27492;DHT22;14927;51.210;6.838;2024-02-21T04:12:38;13.90;60.90
27492;DHT22;14927;51.210;6.838;2024-02-21T04:15:22;14.00;60.90
27492;DHT22;14927;51.210;6.838;2024-02-21T04:18:07;13.80;60.90
27492;DHT22;14927;51.210;6.838;2024-02-21T04:20:52;13.80;60.90
27492;DHT22;14927;51.210;6.838;2024-02-21T04:23:36;13.80;60.80
27492;DHT22;14927;51.210;6.838;2024-02-21T04:26:20;13.80;60.80
27492;DHT22;14927;51.210;6.838;2024-02-21T04:29:05;13.80;60.90
27492;DHT22;14927;51.210;6.838;2024-02-21T04:31:50;13.60;60.70
27492;DHT22;14927;51.210;6.838;2024-02-21T04:34:35;13.80;60.90
27492;DHT22;14927;51.210;6.838;2024-02-21T04:37:20;13.80;60.80
27492;DHT22;14927;51.210;6.838;2024-02-21T04:40:05;13.80;60.80
27492;DHT22;14927;51.210;6.838;2024-02-21T04:42:50;13.80;60.90
27492;DHT22;14927;51.210;6.838;2024-02-21T04:45:37;13.80;60.70
27492;DHT22;14927;51.210;6.838;2024-02-21T04:48:22;13.80;60.60
27492;DHT22;14927;51.210;6.838;2024-02-21T04:51:06;13.80;60.60
27492;DHT22;14927;51.210;6.838;2024-02-21T04:53:51;13.80;60.70
27492;DHT22;14927;51.210;6.838;2024-02-21T04:56:35;13.80;60.70
27492;DHT22;14927;51.210;6.838;2024-02-21T04:59:20;13.80;60.60
27492;DHT22;14927;51.210;6.838;2024-02-21T05:02:04;13.80;60.50
27492;DHT22;14927;51.210;6.838;2024-02-21T05:04:50;14.00;60.60
27492;DHT22;14927;51.210;6.838;2024-02-21T05:07:35;13.80;60.40
27492;DHT22;14927;51.210;6.838;2024-02-21T05:10:19;13.80;60.30
27492;DHT22;14927;51.210;6.838;2024-02-21T05:13:04;14.10;60.40
27492;DHT22;14927;51.210;6.838;2024-02-21T05:15:49;13.80;60.10
27492;DHT22;14927;51.210;6.838;2024-02-21T05:18:34;13.80;60.10
27492;DHT22;14927;51.210;6.838;2024-02-21T05:21:19;13.80;60.10
27492;DHT22;14927;51.210;6.838;2024-02-21T05:24:04;13.90;60.10
27492;DHT22;14927;51.210;6.838;2024-02-21T05:26:48;13.80;60.00
27492;DHT22;14927;51.210;6.838;2024-02-21T05:29:33;13.80;59.90
27492;DHT22;14927;51.210;6.838;2024-02-21T05:32:18;13.80;59.80
27492;DHT22;14927;51.210;6.838;2024-02-21T05:35:03;13.80;59.80
27492;DHT22;14927;51.210;6.838;2024-02-21T05:37:48;13.80;59.80
27492;DHT22;14927;51.210;6.838;2024-02-21T05:40:36;13.80;59.80
27492;DHT22;14927;51.210;6.838;2024-02-21T05:43:21;13.80;59.80
27492;DHT22;14927;51.210;6.838;2024-02-21T05:46:05;13.70;59.70
27492;DHT22;14927;51.210;6.838;2024-02-21T05:48:50;13.80;59.80
27492;DHT22;14927;51.210;6.838;2024-02-21T05:51:35;13.80;59.80
27492;DHT22;14927;51.210;6.838;2024-02-21T05:54:27;13.70;59.70
27492;DHT22;14927;51.210;6.838;2024-02-21T05:57:11;13.70;59.70
27492;DHT22;14927;51.210;6.838;2024-02-21T05:59:56;13.80;59.80
27492;DHT22;14927;51.210;6.838;2024-02-21T06:02:41;13.70;59.80
27492;DHT22;14927;51.210;6.838;2024-02-21T06:05:25;13.90;59.90
27492;DHT22;14927;51.210;6.838;2024-02-21T06:08:10;13.80;59.80
27492;DHT22;14927;51.210;6.838;2024-02-21T06:10:54;13.80;59.80
27492;DHT22;14927;51.210;6.838;2024-02-21T06:13:39;13.80;59.80
27492;DHT22;14927;51.210;6.838;2024-02-21T06:16:24;13.80;59.70
27492;DHT22;14927;51.210;6.838;2024-02-21T06:19:09;13.80;59.70
27492;DHT22;14927;51.210;6.838;2024-02-21T06:21:53;13.80;59.70
27492;DHT22;14927;51.210;6.838;2024-02-21T06:24:38;13.80;60.20
27492;DHT22;14927;51.210;6.838;2024-02-21T06:27:23;13.80;59.60
27492;DHT22;14927;51.210;6.838;2024-02-21T06:30:08;13.80;59.60
27492;DHT22;14927;51.210;6.838;2024-02-21T06:32:53;13.80;59.50
27492;DHT22;14927;51.210;6.838;2024-02-21T06:35:40;13.80;59.50
27492;DHT22;14927;51.210;6.838;2024-02-21T06:38:26;13.80;59.50
27492;DHT22;14927;51.210;6.838;2024-02-21T06:41:15;14.00;59.60
27492;DHT22;14927;51.210;6.838;2024-02-21T06:44:04;13.80;59.40
27492;DHT22;14927;51.210;6.838;2024-02-21T06:46:48;13.90;59.40
27492;DHT22;14927;51.210;6.838;2024-02-21T06:49:34;13.80;59.40
27492;DHT22;14927;51.210;6.838;2024-02-21T06:52:21;13.90;59.50
27492;DHT22;14927;51.210;6.838;2024-02-21T06:55:12;13.80;59.50
27492;DHT22;14927;51.210;6.838;2024-02-21T06:57:56;13.80;59.60
27492;DHT22;14927;51.210;6.838;2024-02-21T07:00:46;14.00;59.60
27492;DHT22;14927;51.210;6.838;2024-02-21T07:03:31;13.80;59.40
27492;DHT22;14927;51.210;6.838;2024-02-21T07:06:16;13.80;59.40
27492;DHT22;14927;51.210;6.838;2024-02-21T07:09:00;13.90;59.40
27492;DHT22;14927;51.210;6.838;2024-02-21T07:11:45;13.90;59.30
27492;DHT22;14927;51.210;6.838;2024-02-21T07:14:31;13.90;59.20
27492;DHT22;14927;51.210;6.838;2024-02-21T07:17:17;13.70;59.10
27492;DHT22;14927;51.210;6.838;2024-02-21T07:20:01;13.90;59.10
27492;DHT22;14927;51.210;6.838;2024-02-21T07:22:46;13.80;59.00
27492;DHT22;14927;51.210;6.838;2024-02-21T07:25:31;13.90;58.90
27492;DHT22;14927;51.210;6.838;2024-02-21T07:28:15;13.80;59.00
27492;DHT22;14927;51.210;6.838;2024-02-21T07:31:00;13.80;59.00
27492;DHT22;14927;51.210;6.838;2024-02-21T07:33:45;13.80;59.10
27492;DHT22;14927;51.210;6.838;2024-02-21T07:36:36;13.90;59.20
27492;DHT22;14927;51.210;6.838;2024-02-21T07:39:24;13.50;59.10
27492;DHT22;14927;51.210;6.838;2024-02-21T07:42:08;13.70;59.30
27492;DHT22;14927;51.210;6.838;2024-02-21T07:44:53;13.70;59.40
27492;DHT22;14927;51.210;6.838;2024-02-21T07:47:41;13.70;59.50
27492;DHT22;14927;51.210;6.838;2024-02-21T07:50:25;13.70;59.60
27492;DHT22;14927;51.210;6.838;2024-02-21T07:53:28;13.70;59.70
27492;DHT22;14927;51.210;6.838;2024-02-21T07:56:18;13.70;59.80
27492;DHT22;14927;51.210;6.838;2024-02-21T07:59:10;13.70;59.80
27492;DHT22;14927;51.210;6.838;2024-02-21T08:02:08;13.70;59.90
27492;DHT22;14927;51.210;6.838;2024-02-21T08:05:06;13.70;59.90
27492;DHT22;14927;51.210;6.838;2024-02-21T08:07:56;13.70;59.90
27492;DHT22;14927;51.210;6.838;2024-02-21T08:10:43;13.70;59.90
27492;DHT22;14927;51.210;6.838;2024-02-21T08:13:31;13.70;60.10
27492;DHT22;14927;51.210;6.838;2024-02-21T08:16:16;13.70;60.10
27492;DHT22;14927;51.210;6.838;2024-02-21T08:19:00;13.80;60.20
27492;DHT22;14927;51.210;6.838;2024-02-21T08:22:03;13.80;60.10
27492;DHT22;14927;51.210;6.838;2024-02-21T08:25:03;13.80;60.00
27492;DHT22;14927;51.210;6.838;2024-02-21T08:27:49;13.70;59.80
27492;DHT22;14927;51.210;6.838;2024-02-21T08:30:35;13.80;59.80
27492;DHT22;14927;51.210;6.838;2024-02-21T08:33:23;13.80;59.70
27492;DHT22;14927;51.210;6.838;2024-02-21T08:36:20;13.70;59.60
27492;DHT22;14927;51.210;6.838;2024-02-21T08:39:04;13.80;59.60
27492;DHT22;14927;51.210;6.838;2024-02-21T08:41:49;13.80;59.60
27492;DHT22;14927;51.210;6.838;2024-02-21T08:44:35;13.70;59.50
27492;DHT22;14927;51.210;6.838;2024-02-21T08:47:19;13.70;59.40
27492;DHT22;14927;51.210;6.838;2024-02-21T08:50:07;13.70;59.50
27492;DHT22;14927;51.210;6.838;2024-02-21T08:52:55;13.70;59.60
27492;DHT22;14927;51.210;6.838;2024-02-21T08:55:40;13.70;59.70
27492;DHT22;14927;51.210;6.838;2024-02-21T08:58:27;13.70;59.80
27492;DHT22;14927;51.210;6.838;2024-02-21T09:01:15;13.40;59.80
27492;DHT22;14927;51.210;6.838;2024-02-21T09:04:00;13.70;60.00
27492;DHT22;14927;51.210;6.838;2024-02-21T09:06:44;13.80;60.20
27492;DHT22;14927;51.210;6.838;2024-02-21T09:09:30;13.60;60.10
27492;DHT22;14927;51.210;6.838;2024-02-21T09:12:17;13.70;60.10
27492;DHT22;14927;51.210;6.838;2024-02-21T09:15:01;13.70;60.00
27492;DHT22;14927;51.210;6.838;2024-02-21T09:17:47;13.70;59.90
27492;DHT22;14927;51.210;6.838;2024-02-21T09:20:32;13.70;60.30
27492;DHT22;14927;51.210;6.838;2024-02-21T09:23:20;13.70;59.80
27492;DHT22;14927;51.210;6.838;2024-02-21T09:26:09;13.70;59.80
27492;DHT22;14927;51.210;6.838;2024-02-21T09:28:57;13.70;60.00
27492;DHT22;14927;51.210;6.838;2024-02-21T09:31:42;13.70;60.10
27492;DHT22;14927;51.210;6.838;2024-02-21T09:34:27;13.70;60.20
27492;DHT22;14927;51.210;6.838;2024-02-21T09:37:14;13.60;60.10
27492;DHT22;14927;51.210;6.838;2024-02-21T09:40:06;13.70;60.30
27492;DHT22;14927;51.210;6.838;2024-02-21T09:43:02;13.70;60.50
27492;DHT22;14927;51.210;6.838;2024-02-21T09:45:55;13.80;60.60
27492;DHT22;14927;51.210;6.838;2024-02-21T09:51:51;13.90;59.90
27492;DHT22;14927;51.210;6.838;2024-02-21T09:54:41;13.80;59.80
27492;DHT22;14927;51.210;6.838;2024-02-21T09:57:28;13.80;59.80
27492;DHT22;14927;51.210;6.838;2024-02-21T10:00:13;13.90;59.80
27492;DHT22;14927;51.210;6.838;2024-02-21T10:03:05;13.90;59.60
27492;DHT22;14927;51.210;6.838;2024-02-21T10:05:52;13.90;59.30
27492;DHT22;14927;51.210;6.838;2024-02-21T10:08:39;13.90;59.20
27492;DHT22;14927;51.210;6.838;2024-02-21T10:11:24;13.90;59.10
27492;DHT22;14927;51.210;6.838;2024-02-21T10:14:09;13.90;58.90
27492;DHT22;14927;51.210;6.838;2024-02-21T10:16:57;13.90;58.50
27492;DHT22;14927;51.210;6.838;2024-02-21T10:19:53;14.00;58.20
27492;DHT22;14927;51.210;6.838;2024-02-21T10:22:38;14.00;58.00
27492;DHT22;14927;51.210;6.838;2024-02-21T10:25:23;14.20;57.70
27492;DHT22;14927;51.210;6.838;2024-02-21T10:28:08;14.10;57.30
27492;DHT22;14927;51.210;6.838;2024-02-21T10:30:53;14.20;57.10
27492;DHT22;14927;51.210;6.838;2024-02-21T10:33:38;14.20;56.80
27492;DHT22;14927;51.210;6.838;2024-02-21T10:36:23;14.40;56.80
27492;DHT22;14927;51.210;6.838;2024-02-21T10:39:11;14.20;56.50
27492;DHT22;14927;51.210;6.838;2024-02-21T10:42:00;14.30;56.50
27492;DHT22;14927;51.210;6.838;2024-02-21T10:44:51;14.30;56.20
27492;DHT22;14927;51.210;6.838;2024-02-21T10:47:37;14.40;56.20
27492;DHT22;14927;51.210;6.838;2024-02-21T10:50:25;14.30;56.20
27492;DHT22;14927;51.210;6.838;2024-02-21T10:53:29;14.40;56.20
27492;DHT22;14927;51.210;6.838;2024-02-21T10:59:15;14.50;56.10
27492;DHT22;14927;51.210;6.838;2024-02-21T11:06:04;14.50;55.40
27492;DHT22;14927;51.210;6.838;2024-02-21T11:09:04;14.60;56.10
27492;DHT22;14927;51.210;6.838;2024-02-21T11:11:53;14.60;55.40
27492;DHT22;14927;51.210;6.838;2024-02-21T11:14:38;14.80;55.80
27492;DHT22;14927;51.210;6.838;2024-02-21T11:17:24;14.70;55.60
27492;DHT22;14927;51.210;6.838;2024-02-21T11:20:12;14.70;55.50
27492;DHT22;14927;51.210;6.838;2024-02-21T11:23:14;14.70;55.30
27492;DHT22;14927;51.210;6.838;2024-02-21T11:26:38;14.80;54.80
27492;DHT22;14927;51.210;6.838;2024-02-21T11:29:24;14.80;55.20
27492;DHT22;14927;51.210;6.838;2024-02-21T11:32:13;14.80;54.80
27492;DHT22;14927;51.210;6.838;2024-02-21T11:35:00;14.90;54.60
27492;DHT22;14927;51.210;6.838;2024-02-21T11:37:47;14.90;54.40
27492;DHT22;14927;51.210;6.838;2024-02-21T11:40:33;14.90;54.40
27492;DHT22;14927;51.210;6.838;2024-02-21T11:43:18;14.90;54.10
27492;DHT22;14927;51.210;6.838;2024-02-21T11:46:03;15.00;54.20
27492;DHT22;14927;51.210;6.838;2024-02-21T11:48:48;15.00;54.00
27492;DHT22;14927;51.210;6.838;2024-02-21T11:51:34;15.00;53.90
27492;DHT22;14927;51.210;6.838;2024-02-21T11:54:19;15.00;53.70
27492;DHT22;14927;51.210;6.838;2024-02-21T11:57:03;15.20;53.60
27492;DHT22;14927;51.210;6.838;2024-02-21T11:59:48;15.10;53.40
27492;DHT22;14927;51.210;6.838;2024-02-21T12:02:34;15.10;53.30
27492;DHT22;14927;51.210;6.838;2024-02-21T12:05:19;15.20;53.30
27492;DHT22;14927;51.210;6.838;2024-02-21T12:08:04;15.10;53.20
27492;DHT22;14927;51.210;6.838;2024-02-21T12:10:52;15.10;53.10
27492;DHT22;14927;51.210;6.838;2024-02-21T12:13:36;15.20;53.30
27492;DHT22;14927;51.210;6.838;2024-02-21T12:20:11;15.20;53.00
27492;DHT22;14927;51.210;6.838;2024-02-21T12:22:56;15.30;53.00
27492;DHT22;14927;51.210;6.838;2024-02-21T12:25:40;15.30;52.90
27492;DHT22;14927;51.210;6.838;2024-02-21T12:28:25;15.30;52.70
27492;DHT22;14927;51.210;6.838;2024-02-21T12:31:10;15.30;52.80
27492;DHT22;14927;51.210;6.838;2024-02-21T12:33:55;15.40;52.80
27492;DHT22;14927;51.210;6.838;2024-02-21T12:36:44;15.70;52.70
27492;DHT22;14927;51.210;6.838;2024-02-21T12:39:32;15.50;52.40
27492;DHT22;14927;51.210;6.838;2024-02-21T12:42:17;15.60;52.50
27492;DHT22;14927;51.210;6.838;2024-02-21T12:45:05;15.60;52.40
27492;DHT22;14927;51.210;6.838;2024-02-21T12:47:50;15.70;52.10
27492;DHT22;14927;51.210;6.838;2024-02-21T12:50:34;15.80;52.40
27492;DHT22;14927;51.210;6.838;2024-02-21T12:53:19;15.90;52.30
27492;DHT22;14927;51.210;6.838;2024-02-21T12:56:08;16.00;52.00
27492;DHT22;14927;51.210;6.838;2024-02-21T12:58:53;16.10;51.80
27492;DHT22;14927;51.210;6.838;2024-02-21T13:01:37;16.00;51.60
27492;DHT22;14927;51.210;6.838;2024-02-21T13:04:22;16.30;51.40
27492;DHT22;14927;51.210;6.838;2024-02-21T13:07:07;16.40;51.10
27492;DHT22;14927;51.210;6.838;2024-02-21T13:09:52;16.40;50.90
27492;DHT22;14927;51.210;6.838;2024-02-21T13:12:37;16.60;50.80
27492;DHT22;14927;51.210;6.838;2024-02-21T13:15:24;16.60;50.70
27492;DHT22;14927;51.210;6.838;2024-02-21T13:18:28;16.80;50.70
27492;DHT22;14927;51.210;6.838;2024-02-21T13:21:23;16.90;50.40
27492;DHT22;14927;51.210;6.838;2024-02-21T13:24:22;16.90;50.10
27492;DHT22;14927;51.210;6.838;2024-02-21T13:27:10;17.20;49.90
27492;DHT22;14927;51.210;6.838;2024-02-21T13:29:57;17.20;49.60
27492;DHT22;14927;51.210;6.838;2024-02-21T13:32:42;17.40;49.30
27492;DHT22;14927;51.210;6.838;2024-02-21T13:35:27;17.40;49.10
27492;DHT22;14927;51.210;6.838;2024-02-21T13:38:12;17.50;48.90
27492;DHT22;14927;51.210;6.838;2024-02-21T13:40:56;17.60;48.70
27492;DHT22;14927;51.210;6.838;2024-02-21T13:43:41;17.60;48.30
27492;DHT22;14927;51.210;6.838;2024-02-21T13:46:25;17.70;48.10
27492;DHT22;14927;51.210;6.838;2024-02-21T13:49:10;17.60;47.90
27492;DHT22;14927;51.210;6.838;2024-02-21T13:51:55;17.60;47.60
27492;DHT22;14927;51.210;6.838;2024-02-21T13:54:40;17.60;47.70
27492;DHT22;14927;51.210;6.838;2024-02-21T13:57:25;17.50;47.60
27492;DHT22;14927;51.210;6.838;2024-02-21T14:00:10;17.50;47.60
27492;DHT22;14927;51.210;6.838;2024-02-21T14:02:55;17.40;47.60
27492;DHT22;14927;51.210;6.838;2024-02-21T14:05:42;17.40;47.50
27492;DHT22;14927;51.210;6.838;2024-02-21T14:08:26;17.30;47.50
27492;DHT22;14927;51.210;6.838;2024-02-21T14:11:11;17.30;47.60
27492;DHT22;14927;51.210;6.838;2024-02-21T14:13:55;17.20;47.70
27492;DHT22;14927;51.210;6.838;2024-02-21T14:16:41;17.20;47.70
27492;DHT22;14927;51.210;6.838;2024-02-21T14:19:26;17.10;47.80
27492;DHT22;14927;51.210;6.838;2024-02-21T14:22:10;17.10;47.80
27492;DHT22;14927;51.210;6.838;2024-02-21T14:24:55;17.10;47.90
27492;DHT22;14927;51.210;6.838;2024-02-21T14:27:40;17.10;48.00
27492;DHT22;14927;51.210;6.838;2024-02-21T14:30:25;17.10;48.00
27492;DHT22;14927;51.210;6.838;2024-02-21T14:33:09;17.10;48.00
27492;DHT22;14927;51.210;6.838;2024-02-21T14:35:54;17.00;47.90
27492;DHT22;14927;51.210;6.838;2024-02-21T14:38:39;17.10;48.00
27492;DHT22;14927;51.210;6.838;2024-02-21T14:41:23;17.10;48.00
27492;DHT22;14927;51.210;6.838;2024-02-21T14:44:08;17.10;48.00
27492;DHT22;14927;51.210;6.838;2024-02-21T14:46:53;17.10;48.00
27492;DHT22;14927;51.210;6.838;2024-02-21T14:49:38;17.10;48.00
27492;DHT22;14927;51.210;6.838;2024-02-21T14:52:22;17.10;47.90
27492;DHT22;14927;51.210;6.838;2024-02-21T14:55:09;17.10;47.90
27492;DHT22;14927;51.210;6.838;2024-02-21T14:57:53;17.10;47.90
27492;DHT22;14927;51.210;6.838;2024-02-21T15:00:40;16.90;47.80
27492;DHT22;14927;51.210;6.838;2024-02-21T15:03:25;17.00;47.90
27492;DHT22;14927;51.210;6.838;2024-02-21T15:06:11;17.00;48.00
27492;DHT22;14927;51.210;6.838;2024-02-21T15:08:56;17.00;48.10
27492;DHT22;14927;51.210;6.838;2024-02-21T15:11:41;17.00;48.20
27492;DHT22;14927;51.210;6.838;2024-02-21T15:14:27;17.00;48.20
27492;DHT22;14927;51.210;6.838;2024-02-21T15:17:12;17.00;48.30
27492;DHT22;14927;51.210;6.838;2024-02-21T15:19:57;16.90;48.30
27492;DHT22;14927;51.210;6.838;2024-02-21T15:22:43;16.90;48.30
27492;DHT22;14927;51.210;6.838;2024-02-21T15:25:27;16.80;48.30
27492;DHT22;14927;51.210;6.838;2024-02-21T15:28:14;16.90;48.40
27492;DHT22;14927;51.210;6.838;2024-02-21T15:30:59;16.80;48.30
27492;DHT22;14927;51.210;6.838;2024-02-21T15:33:43;16.70;48.30
27492;DHT22;14927;51.210;6.838;2024-02-21T15:36:28;16.70;48.40
27492;DHT22;14927;51.210;6.838;2024-02-21T15:39:13;16.70;48.50
27492;DHT22;14927;51.210;6.838;2024-02-21T15:42:18;16.40;48.50
27492;DHT22;14927;51.210;6.838;2024-02-21T15:45:03;16.60;48.60
27492;DHT22;14927;51.210;6.838;2024-02-21T15:47:51;16.60;48.60
27492;DHT22;14927;51.210;6.838;2024-02-21T15:50:38;16.60;48.70
27492;DHT22;14927;51.210;6.838;2024-02-21T15:53:23;16.40;48.70
27492;DHT22;14927;51.210;6.838;2024-02-21T15:56:08;16.40;48.70
27492;DHT22;14927;51.210;6.838;2024-02-21T15:58:53;16.50;48.80
27492;DHT22;14927;51.210;6.838;2024-02-21T16:01:39;16.40;48.80
27492;DHT22;14927;51.210;6.838;2024-02-21T16:04:24;16.40;48.90
27492;DHT22;14927;51.210;6.838;2024-02-21T16:07:09;16.40;49.50
27492;DHT22;14927;51.210;6.838;2024-02-21T16:09:54;16.30;49.00
27492;DHT22;14927;51.210;6.838;2024-02-21T16:12:40;16.30;49.20
27492;DHT22;14927;51.210;6.838;2024-02-21T16:15:25;16.30;49.50
27492;DHT22;14927;51.210;6.838;2024-02-21T16:18:10;16.20;49.40
27492;DHT22;14927;51.210;6.838;2024-02-21T16:20:54;16.20;49.40
27492;DHT22;14927;51.210;6.838;2024-02-21T16:23:39;16.40;49.50
27492;DHT22;14927;51.210;6.838;2024-02-21T16:26:24;16.10;49.40
27492;DHT22;14927;51.210;6.838;2024-02-21T16:29:08;16.10;49.10
27492;DHT22;14927;51.210;6.838;2024-02-21T16:31:53;16.10;49.10
27492;DHT22;14927;51.210;6.838;2024-02-21T16:34:38;16.00;49.00
27492;DHT22;14927;51.210;6.838;2024-02-21T16:37:22;16.00;49.10
27492;DHT22;14927;51.210;6.838;2024-02-21T16:40:07;16.00;49.10
27492;DHT22;14927;51.210;6.838;2024-02-21T16:42:52;15.90;49.30
27492;DHT22;14927;51.210;6.838;2024-02-21T16:45:36;16.00;50.20
27492;DHT22;14927;51.210;6.838;2024-02-21T16:48:21;15.90;49.80
27492;DHT22;14927;51.210;6.838;2024-02-21T16:51:06;15.80;49.90
27492;DHT22;14927;51.210;6.838;2024-02-21T16:53:51;15.80;49.80
27492;DHT22;14927;51.210;6.838;2024-02-21T16:56:36;15.80;50.10
27492;DHT22;14927;51.210;6.838;2024-02-21T16:59:21;15.80;50.20
27492;DHT22;14927;51.210;6.838;2024-02-21T17:02:05;15.80;50.40
27492;DHT22;14927;51.210;6.838;2024-02-21T17:04:50;15.80;50.50
27492;DHT22;14927;51.210;6.838;2024-02-21T17:07:37;15.70;50.20
27492;DHT22;14927;51.210;6.838;2024-02-21T17:10:22;15.70;50.00
27492;DHT22;14927;51.210;6.838;2024-02-21T17:13:07;15.70;50.00
27492;DHT22;14927;51.210;6.838;2024-02-21T17:15:51;15.60;50.00
27492;DHT22;14927;51.210;6.838;2024-02-21T17:18:36;15.60;50.10
27492;DHT22;14927;51.210;6.838;2024-02-21T17:21:21;15.50;50.00
27492;DHT22;14927;51.210;6.838;2024-02-21T17:24:06;15.50;50.30
27492;DHT22;14927;51.210;6.838;2024-02-21T17:26:50;15.40;50.60
27492;DHT22;14927;51.210;6.838;2024-02-21T17:29:35;15.40;50.80
27492;DHT22;14927;51.210;6.838;2024-02-21T17:32:19;15.30;50.80
27492;DHT22;14927;51.210;6.838;2024-02-21T17:35:05;15.30;51.00
27492;DHT22;14927;51.210;6.838;2024-02-21T17:37:50;15.30;51.00
27492;DHT22;14927;51.210;6.838;2024-02-21T17:40:34;15.20;51.20
27492;DHT22;14927;51.210;6.838;2024-02-21T17:43:19;15.10;51.40
27492;DHT22;14927;51.210;6.838;2024-02-21T17:46:06;15.10;51.60